sensor_id;sensor_type;location;lat;lon;timestamp;P1;durP1;ratioP1;P2;durP2;ratioP2
77287;SDS011;66345;42.694;23.346;2023-12-20T00:02:12;213.95;;;86.30;;
77287;SDS011;66345;42.694;23.346;2023-12-20T00:04:38;185.25;;;80.40;;
77287;SDS011;66345;42.694;23.346;2023-12-20T00:07:03;183.13;;;81.67;;
77287;SDS011;66345;42.694;23.346;2023-12-20T00:09:29;186.83;;;78.70;;
77287;SDS011;66345;42.694;23.346;2023-12-20T00:11:54;203.00;;;80.45;;
77287;SDS011;66345;42.694;23.346;2023-12-20T00:14:20;175.02;;;72.90;;
77287;SDS011;66345;42.694;23.346;2023-12-20T00:16:45;169.40;;;68.07;;
77287;SDS011;66345;42.694;23.346;2023-12-20T00:19:11;145.07;;;61.30;;
77287;SDS011;66345;42.694;23.346;2023-12-20T00:21:36;141.80;;;58.53;;
77287;SDS011;66345;42.694;23.346;2023-12-20T00:24:02;141.63;;;59.22;;
77287;SDS011;66345;42.694;23.346;2023-12-20T00:26:27;142.43;;;55.93;;
77287;SDS011;66345;42.694;23.346;2023-12-20T00:28:53;155.33;;;64.10;;
77287;SDS011;66345;42.694;23.346;2023-12-20T00:31:18;204.20;;;85.80;;
77287;SDS011;66345;42.694;23.346;2023-12-20T00:33:44;210.47;;;89.33;;
77287;SDS011;66345;42.694;23.346;2023-12-20T00:36:11;228.40;;;94.80;;
77287;SDS011;66345;42.694;23.346;2023-12-20T00:38:36;237.33;;;99.60;;
77287;SDS011;66345;42.694;23.346;2023-12-20T00:41:02;242.47;;;101.03;;
77287;SDS011;66345;42.694;23.346;2023-12-20T00:43:27;243.18;;;104.40;;
77287;SDS011;66345;42.694;23.346;2023-12-20T00:45:53;249.70;;;104.83;;
77287;SDS011;66345;42.694;23.346;2023-12-20T00:48:18;241.07;;;105.50;;
77287;SDS011;66345;42.694;23.346;2023-12-20T00:50:44;251.83;;;103.73;;
77287;SDS011;66345;42.694;23.346;2023-12-20T00:53:09;240.88;;;99.40;;
77287;SDS011;66345;42.694;23.346;2023-12-20T00:55:35;236.80;;;98.17;;
77287;SDS011;66345;42.694;23.346;2023-12-20T00:58:00;225.60;;;96.20;;
77287;SDS011;66345;42.694;23.346;2023-12-20T01:00:26;227.03;;;94.17;;
77287;SDS011;66345;42.694;23.346;2023-12-20T01:02:52;220.60;;;91.88;;
77287;SDS011;66345;42.694;23.346;2023-12-20T01:05:18;210.63;;;90.50;;
77287;SDS011;66345;42.694;23.346;2023-12-20T01:07:44;212.65;;;93.18;;
77287;SDS011;66345;42.694;23.346;2023-12-20T01:10:09;219.33;;;94.37;;
77287;SDS011;66345;42.694;23.346;2023-12-20T01:12:35;210.50;;;89.28;;
77287;SDS011;66345;42.694;23.346;2023-12-20T01:15:02;211.00;;;88.53;;
77287;SDS011;66345;42.694;23.346;2023-12-20T01:17:27;204.32;;;87.05;;
77287;SDS011;66345;42.694;23.346;2023-12-20T01:19:53;198.20;;;84.50;;
77287;SDS011;66345;42.694;23.346;2023-12-20T01:22:18;188.33;;;79.03;;
77287;SDS011;66345;42.694;23.346;2023-12-20T01:24:44;176.45;;;74.53;;
77287;SDS011;66345;42.694;23.346;2023-12-20T01:27:09;173.33;;;71.77;;
77287;SDS011;66345;42.694;23.346;2023-12-20T01:29:35;173.03;;;70.80;;
77287;SDS011;66345;42.694;23.346;2023-12-20T01:32:00;186.80;;;71.63;;
77287;SDS011;66345;42.694;23.346;2023-12-20T01:34:26;161.63;;;65.88;;
77287;SDS011;66345;42.694;23.346;2023-12-20T01:36:51;136.67;;;59.10;;
77287;SDS011;66345;42.694;23.346;2023-12-20T01:39:17;146.87;;;56.60;;
77287;SDS011;66345;42.694;23.346;2023-12-20T01:41:43;151.98;;;60.22;;
77287;SDS011;66345;42.694;23.346;2023-12-20T01:44:08;154.13;;;62.10;;
77287;SDS011;66345;42.694;23.346;2023-12-20T01:46:34;154.65;;;60.55;;
77287;SDS011;66345;42.694;23.346;2023-12-20T01:48:59;146.75;;;59.22;;
77287;SDS011;66345;42.694;23.346;2023-12-20T01:51:25;152.13;;;62.25;;
77287;SDS011;66345;42.694;23.346;2023-12-20T01:53:52;153.97;;;61.73;;
77287;SDS011;66345;42.694;23.346;2023-12-20T01:56:20;152.70;;;62.28;;
77287;SDS011;66345;42.694;23.346;2023-12-20T01:58:46;158.00;;;63.88;;
77287;SDS011;66345;42.694;23.346;2023-12-20T02:01:13;146.05;;;59.35;;
77287;SDS011;66345;42.694;23.346;2023-12-20T02:03:40;147.13;;;60.23;;
77287;SDS011;66345;42.694;23.346;2023-12-20T02:06:07;147.43;;;59.65;;
77287;SDS011;66345;42.694;23.346;2023-12-20T02:08:32;137.30;;;55.47;;
77287;SDS011;66345;42.694;23.346;2023-12-20T02:10:59;125.17;;;49.30;;
77287;SDS011;66345;42.694;23.346;2023-12-20T02:13:25;122.30;;;49.47;;
77287;SDS011;66345;42.694;23.346;2023-12-20T02:15:51;106.93;;;45.25;;
77287;SDS011;66345;42.694;23.346;2023-12-20T02:18:17;103.70;;;44.47;;
77287;SDS011;66345;42.694;23.346;2023-12-20T02:20:43;109.43;;;44.20;;
77287;SDS011;66345;42.694;23.346;2023-12-20T02:23:09;102.40;;;41.47;;
77287;SDS011;66345;42.694;23.346;2023-12-20T02:25:34;117.38;;;47.80;;
77287;SDS011;66345;42.694;23.346;2023-12-20T02:28:00;118.13;;;45.47;;
77287;SDS011;66345;42.694;23.346;2023-12-20T02:30:26;113.60;;;45.10;;
77287;SDS011;66345;42.694;23.346;2023-12-20T02:32:52;108.87;;;42.03;;
77287;SDS011;66345;42.694;23.346;2023-12-20T02:35:18;101.68;;;40.47;;
77287;SDS011;66345;42.694;23.346;2023-12-20T02:37:44;112.87;;;44.73;;
77287;SDS011;66345;42.694;23.346;2023-12-20T02:40:09;107.70;;;40.70;;
77287;SDS011;66345;42.694;23.346;2023-12-20T02:42:35;102.30;;;39.37;;
77287;SDS011;66345;42.694;23.346;2023-12-20T02:45:01;107.43;;;41.30;;
77287;SDS011;66345;42.694;23.346;2023-12-20T02:47:26;106.60;;;42.73;;
77287;SDS011;66345;42.694;23.346;2023-12-20T02:49:52;112.70;;;42.30;;
77287;SDS011;66345;42.694;23.346;2023-12-20T02:52:18;113.88;;;40.65;;
77287;SDS011;66345;42.694;23.346;2023-12-20T02:54:44;117.57;;;41.30;;
77287;SDS011;66345;42.694;23.346;2023-12-20T02:57:09;111.35;;;38.75;;
77287;SDS011;66345;42.694;23.346;2023-12-20T02:59:35;127.10;;;40.67;;
77287;SDS011;66345;42.694;23.346;2023-12-20T03:02:00;111.00;;;37.33;;
77287;SDS011;66345;42.694;23.346;2023-12-20T03:04:26;117.17;;;37.83;;
77287;SDS011;66345;42.694;23.346;2023-12-20T03:06:51;107.25;;;38.35;;
77287;SDS011;66345;42.694;23.346;2023-12-20T03:09:17;116.00;;;35.30;;
77287;SDS011;66345;42.694;23.346;2023-12-20T03:11:42;109.50;;;37.13;;
77287;SDS011;66345;42.694;23.346;2023-12-20T03:14:07;108.03;;;34.70;;
77287;SDS011;66345;42.694;23.346;2023-12-20T03:16:33;105.18;;;35.53;;
77287;SDS011;66345;42.694;23.346;2023-12-20T03:18:58;94.93;;;32.50;;
77287;SDS011;66345;42.694;23.346;2023-12-20T03:21:24;91.03;;;33.73;;
77287;SDS011;66345;42.694;23.346;2023-12-20T03:23:49;93.30;;;32.43;;
77287;SDS011;66345;42.694;23.346;2023-12-20T03:26:16;95.07;;;33.47;;
77287;SDS011;66345;42.694;23.346;2023-12-20T03:28:41;98.73;;;33.40;;
77287;SDS011;66345;42.694;23.346;2023-12-20T03:31:07;93.57;;;32.63;;
77287;SDS011;66345;42.694;23.346;2023-12-20T03:33:32;112.97;;;34.83;;
77287;SDS011;66345;42.694;23.346;2023-12-20T03:35:58;86.23;;;32.17;;
77287;SDS011;66345;42.694;23.346;2023-12-20T03:38:23;96.70;;;33.33;;
77287;SDS011;66345;42.694;23.346;2023-12-20T03:40:49;96.00;;;34.10;;
77287;SDS011;66345;42.694;23.346;2023-12-20T03:43:15;118.22;;;32.88;;
77287;SDS011;66345;42.694;23.346;2023-12-20T03:45:41;94.30;;;33.60;;
77287;SDS011;66345;42.694;23.346;2023-12-20T03:48:07;98.63;;;33.47;;
77287;SDS011;66345;42.694;23.346;2023-12-20T03:50:33;77.80;;;28.13;;
77287;SDS011;66345;42.694;23.346;2023-12-20T03:52:59;89.22;;;32.30;;
77287;SDS011;66345;42.694;23.346;2023-12-20T03:55:24;91.53;;;32.43;;
77287;SDS011;66345;42.694;23.346;2023-12-20T03:57:50;89.88;;;31.92;;
77287;SDS011;66345;42.694;23.346;2023-12-20T04:00:15;96.63;;;29.90;;
77287;SDS011;66345;42.694;23.346;2023-12-20T04:02:41;81.33;;;31.57;;
77287;SDS011;66345;42.694;23.346;2023-12-20T04:05:08;89.70;;;30.08;;
77287;SDS011;66345;42.694;23.346;2023-12-20T04:07:37;80.63;;;29.20;;
77287;SDS011;66345;42.694;23.346;2023-12-20T04:10:03;93.53;;;32.07;;
77287;SDS011;66345;42.694;23.346;2023-12-20T04:12:29;86.50;;;30.05;;
77287;SDS011;66345;42.694;23.346;2023-12-20T04:14:55;96.55;;;32.28;;
77287;SDS011;66345;42.694;23.346;2023-12-20T04:17:21;94.10;;;30.90;;
77287;SDS011;66345;42.694;23.346;2023-12-20T04:19:50;88.55;;;31.17;;
77287;SDS011;66345;42.694;23.346;2023-12-20T04:22:17;90.40;;;32.43;;
77287;SDS011;66345;42.694;23.346;2023-12-20T04:24:43;87.03;;;31.13;;
77287;SDS011;66345;42.694;23.346;2023-12-20T04:27:09;84.80;;;31.90;;
77287;SDS011;66345;42.694;23.346;2023-12-20T04:29:34;88.65;;;30.80;;
77287;SDS011;66345;42.694;23.346;2023-12-20T04:32:00;94.97;;;32.83;;
77287;SDS011;66345;42.694;23.346;2023-12-20T04:34:25;93.78;;;34.72;;
77287;SDS011;66345;42.694;23.346;2023-12-20T04:36:51;97.97;;;38.22;;
77287;SDS011;66345;42.694;23.346;2023-12-20T04:39:17;99.55;;;37.88;;
77287;SDS011;66345;42.694;23.346;2023-12-20T04:41:43;94.77;;;36.53;;
77287;SDS011;66345;42.694;23.346;2023-12-20T04:44:08;95.57;;;38.10;;
77287;SDS011;66345;42.694;23.346;2023-12-20T04:46:34;92.18;;;34.53;;
77287;SDS011;66345;42.694;23.346;2023-12-20T04:48:59;83.07;;;34.93;;
77287;SDS011;66345;42.694;23.346;2023-12-20T04:51:25;91.27;;;33.40;;
77287;SDS011;66345;42.694;23.346;2023-12-20T04:53:50;97.10;;;35.50;;
77287;SDS011;66345;42.694;23.346;2023-12-20T04:56:16;107.55;;;39.80;;
77287;SDS011;66345;42.694;23.346;2023-12-20T04:58:44;94.17;;;36.70;;
77287;SDS011;66345;42.694;23.346;2023-12-20T05:01:10;112.40;;;40.13;;
77287;SDS011;66345;42.694;23.346;2023-12-20T05:03:37;130.00;;;44.07;;
77287;SDS011;66345;42.694;23.346;2023-12-20T05:06:02;109.40;;;42.80;;
77287;SDS011;66345;42.694;23.346;2023-12-20T05:08:28;125.57;;;43.58;;
77287;SDS011;66345;42.694;23.346;2023-12-20T05:10:54;103.43;;;38.30;;
77287;SDS011;66345;42.694;23.346;2023-12-20T05:13:20;107.60;;;40.95;;
77287;SDS011;66345;42.694;23.346;2023-12-20T05:15:46;111.03;;;39.87;;
77287;SDS011;66345;42.694;23.346;2023-12-20T05:18:11;113.93;;;40.85;;
77287;SDS011;66345;42.694;23.346;2023-12-20T05:20:37;97.63;;;40.30;;
77287;SDS011;66345;42.694;23.346;2023-12-20T05:23:03;106.70;;;36.85;;
77287;SDS011;66345;42.694;23.346;2023-12-20T05:25:29;101.30;;;34.73;;
77287;SDS011;66345;42.694;23.346;2023-12-20T05:27:54;92.93;;;33.80;;
77287;SDS011;66345;42.694;23.346;2023-12-20T05:30:20;96.15;;;33.72;;
77287;SDS011;66345;42.694;23.346;2023-12-20T05:32:45;84.97;;;32.20;;
77287;SDS011;66345;42.694;23.346;2023-12-20T05:35:11;92.57;;;33.07;;
77287;SDS011;66345;42.694;23.346;2023-12-20T05:37:36;91.77;;;32.80;;
77287;SDS011;66345;42.694;23.346;2023-12-20T05:40:02;96.30;;;33.20;;
77287;SDS011;66345;42.694;23.346;2023-12-20T05:42:29;81.03;;;31.42;;
77287;SDS011;66345;42.694;23.346;2023-12-20T05:44:54;91.27;;;32.17;;
77287;SDS011;66345;42.694;23.346;2023-12-20T05:47:20;83.37;;;30.03;;
77287;SDS011;66345;42.694;23.346;2023-12-20T05:49:45;80.07;;;29.75;;
77287;SDS011;66345;42.694;23.346;2023-12-20T05:52:11;97.15;;;31.83;;
77287;SDS011;66345;42.694;23.346;2023-12-20T05:54:36;100.70;;;31.13;;
77287;SDS011;66345;42.694;23.346;2023-12-20T05:57:02;88.63;;;30.80;;
77287;SDS011;66345;42.694;23.346;2023-12-20T05:59:27;76.07;;;28.67;;
77287;SDS011;66345;42.694;23.346;2023-12-20T06:01:53;79.27;;;28.17;;
77287;SDS011;66345;42.694;23.346;2023-12-20T06:04:18;79.70;;;31.17;;
77287;SDS011;66345;42.694;23.346;2023-12-20T06:06:44;80.40;;;30.77;;
77287;SDS011;66345;42.694;23.346;2023-12-20T06:09:10;76.18;;;29.58;;
77287;SDS011;66345;42.694;23.346;2023-12-20T06:11:36;80.80;;;29.07;;
77287;SDS011;66345;42.694;23.346;2023-12-20T06:14:01;80.20;;;30.77;;
77287;SDS011;66345;42.694;23.346;2023-12-20T06:16:26;78.20;;;30.43;;
77287;SDS011;66345;42.694;23.346;2023-12-20T06:18:52;74.57;;;29.90;;
77287;SDS011;66345;42.694;23.346;2023-12-20T06:21:17;77.88;;;30.27;;
77287;SDS011;66345;42.694;23.346;2023-12-20T06:23:43;64.85;;;28.52;;
77287;SDS011;66345;42.694;23.346;2023-12-20T06:26:08;73.60;;;28.23;;
77287;SDS011;66345;42.694;23.346;2023-12-20T06:28:34;70.07;;;28.00;;
77287;SDS011;66345;42.694;23.346;2023-12-20T06:30:59;73.68;;;27.30;;
77287;SDS011;66345;42.694;23.346;2023-12-20T06:33:25;83.07;;;27.90;;
77287;SDS011;66345;42.694;23.346;2023-12-20T06:35:51;70.80;;;27.98;;
77287;SDS011;66345;42.694;23.346;2023-12-20T06:38:17;63.55;;;24.45;;
77287;SDS011;66345;42.694;23.346;2023-12-20T06:40:44;72.70;;;26.87;;
77287;SDS011;66345;42.694;23.346;2023-12-20T06:43:12;70.68;;;27.63;;
77287;SDS011;66345;42.694;23.346;2023-12-20T06:45:38;72.72;;;28.15;;
77287;SDS011;66345;42.694;23.346;2023-12-20T06:48:04;68.00;;;27.30;;
77287;SDS011;66345;42.694;23.346;2023-12-20T06:50:30;64.20;;;27.80;;
77287;SDS011;66345;42.694;23.346;2023-12-20T06:52:55;73.38;;;29.63;;
77287;SDS011;66345;42.694;23.346;2023-12-20T06:55:21;64.10;;;27.77;;
77287;SDS011;66345;42.694;23.346;2023-12-20T06:57:46;62.00;;;26.83;;
77287;SDS011;66345;42.694;23.346;2023-12-20T07:00:12;77.43;;;29.33;;
77287;SDS011;66345;42.694;23.346;2023-12-20T07:02:38;74.10;;;27.70;;
77287;SDS011;66345;42.694;23.346;2023-12-20T07:05:03;73.75;;;27.63;;
77287;SDS011;66345;42.694;23.346;2023-12-20T07:07:29;66.95;;;28.35;;
77287;SDS011;66345;42.694;23.346;2023-12-20T07:09:55;73.95;;;28.02;;
77287;SDS011;66345;42.694;23.346;2023-12-20T07:12:21;67.07;;;27.03;;
77287;SDS011;66345;42.694;23.346;2023-12-20T07:14:46;72.23;;;28.63;;
77287;SDS011;66345;42.694;23.346;2023-12-20T07:17:12;76.55;;;29.27;;
77287;SDS011;66345;42.694;23.346;2023-12-20T07:19:39;78.30;;;29.30;;
77287;SDS011;66345;42.694;23.346;2023-12-20T07:22:05;67.00;;;28.40;;
77287;SDS011;66345;42.694;23.346;2023-12-20T07:24:31;76.50;;;30.77;;
77287;SDS011;66345;42.694;23.346;2023-12-20T07:26:57;73.93;;;28.73;;
77287;SDS011;66345;42.694;23.346;2023-12-20T07:29:24;72.82;;;27.75;;
77287;SDS011;66345;42.694;23.346;2023-12-20T07:31:50;76.53;;;31.00;;
77287;SDS011;66345;42.694;23.346;2023-12-20T07:34:17;75.85;;;29.63;;
77287;SDS011;66345;42.694;23.346;2023-12-20T07:36:42;65.53;;;29.48;;
77287;SDS011;66345;42.694;23.346;2023-12-20T07:39:08;70.63;;;29.60;;
77287;SDS011;66345;42.694;23.346;2023-12-20T07:41:33;72.43;;;29.77;;
77287;SDS011;66345;42.694;23.346;2023-12-20T07:43:59;68.43;;;29.00;;
77287;SDS011;66345;42.694;23.346;2023-12-20T07:46:24;72.85;;;30.73;;
77287;SDS011;66345;42.694;23.346;2023-12-20T07:48:50;74.70;;;31.40;;
77287;SDS011;66345;42.694;23.346;2023-12-20T07:51:15;78.10;;;31.47;;
77287;SDS011;66345;42.694;23.346;2023-12-20T07:53:41;77.05;;;32.95;;
77287;SDS011;66345;42.694;23.346;2023-12-20T07:56:13;68.28;;;30.35;;
77287;SDS011;66345;42.694;23.346;2023-12-20T07:58:40;73.72;;;31.50;;
77287;SDS011;66345;42.694;23.346;2023-12-20T08:01:05;79.63;;;33.67;;
77287;SDS011;66345;42.694;23.346;2023-12-20T08:03:31;79.38;;;35.28;;
77287;SDS011;66345;42.694;23.346;2023-12-20T08:05:57;89.80;;;36.30;;
77287;SDS011;66345;42.694;23.346;2023-12-20T08:08:24;90.80;;;35.67;;
77287;SDS011;66345;42.694;23.346;2023-12-20T08:10:50;75.37;;;32.77;;
77287;SDS011;66345;42.694;23.346;2023-12-20T08:13:15;84.87;;;34.80;;
77287;SDS011;66345;42.694;23.346;2023-12-20T08:15:42;82.82;;;32.78;;
77287;SDS011;66345;42.694;23.346;2023-12-20T08:18:08;83.60;;;32.77;;
77287;SDS011;66345;42.694;23.346;2023-12-20T08:20:33;78.00;;;30.85;;
77287;SDS011;66345;42.694;23.346;2023-12-20T08:22:59;74.40;;;34.50;;
77287;SDS011;66345;42.694;23.346;2023-12-20T08:25:24;77.57;;;32.77;;
77287;SDS011;66345;42.694;23.346;2023-12-20T08:27:50;84.73;;;34.60;;
77287;SDS011;66345;42.694;23.346;2023-12-20T08:30:15;80.63;;;32.83;;
77287;SDS011;66345;42.694;23.346;2023-12-20T08:32:45;76.23;;;31.80;;
77287;SDS011;66345;42.694;23.346;2023-12-20T08:35:11;75.35;;;32.15;;
77287;SDS011;66345;42.694;23.346;2023-12-20T08:37:36;72.27;;;32.47;;
77287;SDS011;66345;42.694;23.346;2023-12-20T08:40:04;72.20;;;31.42;;
77287;SDS011;66345;42.694;23.346;2023-12-20T08:42:30;70.80;;;30.23;;
77287;SDS011;66345;42.694;23.346;2023-12-20T08:44:59;74.13;;;31.87;;
77287;SDS011;66345;42.694;23.346;2023-12-20T08:47:24;84.63;;;32.10;;
77287;SDS011;66345;42.694;23.346;2023-12-20T08:49:50;84.88;;;31.52;;
77287;SDS011;66345;42.694;23.346;2023-12-20T08:52:16;69.27;;;28.27;;
77287;SDS011;66345;42.694;23.346;2023-12-20T08:54:41;65.38;;;26.98;;
77287;SDS011;66345;42.694;23.346;2023-12-20T08:57:07;73.53;;;29.40;;
77287;SDS011;66345;42.694;23.346;2023-12-20T08:59:33;72.90;;;26.73;;
77287;SDS011;66345;42.694;23.346;2023-12-20T09:01:58;71.28;;;27.15;;
77287;SDS011;66345;42.694;23.346;2023-12-20T09:04:24;65.93;;;27.33;;
77287;SDS011;66345;42.694;23.346;2023-12-20T09:06:50;65.13;;;27.13;;
77287;SDS011;66345;42.694;23.346;2023-12-20T09:09:15;71.27;;;29.40;;
77287;SDS011;66345;42.694;23.346;2023-12-20T09:11:41;71.30;;;28.58;;
77287;SDS011;66345;42.694;23.346;2023-12-20T09:14:07;85.70;;;31.00;;
77287;SDS011;66345;42.694;23.346;2023-12-20T09:16:33;85.10;;;32.45;;
77287;SDS011;66345;42.694;23.346;2023-12-20T09:18:58;90.35;;;32.97;;
77287;SDS011;66345;42.694;23.346;2023-12-20T09:21:24;85.97;;;34.75;;
77287;SDS011;66345;42.694;23.346;2023-12-20T09:23:49;99.77;;;34.23;;
77287;SDS011;66345;42.694;23.346;2023-12-20T09:26:15;97.67;;;36.10;;
77287;SDS011;66345;42.694;23.346;2023-12-20T09:28:40;97.25;;;34.97;;
77287;SDS011;66345;42.694;23.346;2023-12-20T09:31:06;88.60;;;33.40;;
77287;SDS011;66345;42.694;23.346;2023-12-20T09:33:32;96.32;;;33.72;;
77287;SDS011;66345;42.694;23.346;2023-12-20T09:35:58;90.47;;;32.10;;
77287;SDS011;66345;42.694;23.346;2023-12-20T09:38:27;82.45;;;31.50;;
77287;SDS011;66345;42.694;23.346;2023-12-20T09:40:53;83.35;;;30.13;;
77287;SDS011;66345;42.694;23.346;2023-12-20T09:43:20;90.18;;;32.50;;
77287;SDS011;66345;42.694;23.346;2023-12-20T09:45:49;94.73;;;31.67;;
77287;SDS011;66345;42.694;23.346;2023-12-20T09:48:19;85.95;;;31.30;;
77287;SDS011;66345;42.694;23.346;2023-12-20T09:50:45;88.97;;;29.83;;
77287;SDS011;66345;42.694;23.346;2023-12-20T09:53:11;82.13;;;29.40;;
77287;SDS011;66345;42.694;23.346;2023-12-20T09:55:40;75.85;;;27.58;;
77287;SDS011;66345;42.694;23.346;2023-12-20T09:58:07;81.45;;;29.50;;
77287;SDS011;66345;42.694;23.346;2023-12-20T10:00:34;77.03;;;27.80;;
77287;SDS011;66345;42.694;23.346;2023-12-20T10:03:00;84.00;;;30.85;;
77287;SDS011;66345;42.694;23.346;2023-12-20T10:05:30;85.97;;;30.50;;
77287;SDS011;66345;42.694;23.346;2023-12-20T10:07:56;78.57;;;28.90;;
77287;SDS011;66345;42.694;23.346;2023-12-20T10:10:23;74.60;;;27.40;;
77287;SDS011;66345;42.694;23.346;2023-12-20T10:13:07;80.15;;;28.13;;
77287;SDS011;66345;42.694;23.346;2023-12-20T10:15:35;74.85;;;28.13;;
77287;SDS011;66345;42.694;23.346;2023-12-20T10:18:02;78.83;;;29.27;;
77287;SDS011;66345;42.694;23.346;2023-12-20T10:20:29;74.55;;;27.38;;
77287;SDS011;66345;42.694;23.346;2023-12-20T10:22:55;81.70;;;29.00;;
77287;SDS011;66345;42.694;23.346;2023-12-20T10:25:22;77.10;;;29.90;;
77287;SDS011;66345;42.694;23.346;2023-12-20T10:27:48;87.43;;;30.45;;
77287;SDS011;66345;42.694;23.346;2023-12-20T10:30:15;89.80;;;31.43;;
77287;SDS011;66345;42.694;23.346;2023-12-20T10:32:41;71.22;;;27.98;;
77287;SDS011;66345;42.694;23.346;2023-12-20T10:35:06;89.05;;;30.02;;
77287;SDS011;66345;42.694;23.346;2023-12-20T10:37:36;81.43;;;28.37;;
77287;SDS011;66345;42.694;23.346;2023-12-20T10:40:03;92.05;;;30.45;;
77287;SDS011;66345;42.694;23.346;2023-12-20T10:42:31;81.07;;;31.65;;
77287;SDS011;66345;42.694;23.346;2023-12-20T10:45:01;80.10;;;31.48;;
77287;SDS011;66345;42.694;23.346;2023-12-20T10:47:26;90.60;;;33.80;;
77287;SDS011;66345;42.694;23.346;2023-12-20T10:49:53;92.63;;;33.35;;
77287;SDS011;66345;42.694;23.346;2023-12-20T10:52:20;84.10;;;32.42;;
77287;SDS011;66345;42.694;23.346;2023-12-20T10:54:48;80.37;;;30.23;;
77287;SDS011;66345;42.694;23.346;2023-12-20T10:57:14;80.32;;;32.00;;
77287;SDS011;66345;42.694;23.346;2023-12-20T10:59:43;75.78;;;30.55;;
77287;SDS011;66345;42.694;23.346;2023-12-20T11:02:12;86.20;;;32.80;;
77287;SDS011;66345;42.694;23.346;2023-12-20T11:04:40;85.30;;;32.45;;
77287;SDS011;66345;42.694;23.346;2023-12-20T11:09:56;98.00;;;33.67;;
77287;SDS011;66345;42.694;23.346;2023-12-20T11:12:32;91.43;;;35.75;;
77287;SDS011;66345;42.694;23.346;2023-12-20T11:15:05;92.63;;;34.72;;
77287;SDS011;66345;42.694;23.346;2023-12-20T11:17:33;89.32;;;33.47;;
77287;SDS011;66345;42.694;23.346;2023-12-20T11:22:29;97.25;;;35.53;;
77287;SDS011;66345;42.694;23.346;2023-12-20T11:25:03;89.57;;;32.78;;
77287;SDS011;66345;42.694;23.346;2023-12-20T11:27:32;91.53;;;34.27;;
77287;SDS011;66345;42.694;23.346;2023-12-20T11:29:59;90.05;;;35.60;;
77287;SDS011;66345;42.694;23.346;2023-12-20T11:32:31;103.30;;;38.10;;
77287;SDS011;66345;42.694;23.346;2023-12-20T11:37:36;109.45;;;39.08;;
77287;SDS011;66345;42.694;23.346;2023-12-20T11:40:06;117.25;;;41.15;;
77287;SDS011;66345;42.694;23.346;2023-12-20T11:42:46;107.03;;;39.38;;
77287;SDS011;66345;42.694;23.346;2023-12-20T11:45:15;110.90;;;42.40;;
77287;SDS011;66345;42.694;23.346;2023-12-20T11:47:43;112.40;;;40.30;;
77287;SDS011;66345;42.694;23.346;2023-12-20T11:50:11;104.35;;;40.17;;
77287;SDS011;66345;42.694;23.346;2023-12-20T11:52:36;109.45;;;40.40;;
77287;SDS011;66345;42.694;23.346;2023-12-20T11:55:02;109.43;;;40.77;;
77287;SDS011;66345;42.694;23.346;2023-12-20T11:57:29;103.55;;;39.90;;
77287;SDS011;66345;42.694;23.346;2023-12-20T11:59:55;104.40;;;37.78;;
77287;SDS011;66345;42.694;23.346;2023-12-20T12:02:21;99.30;;;38.63;;
77287;SDS011;66345;42.694;23.346;2023-12-20T12:04:48;103.53;;;36.47;;
77287;SDS011;66345;42.694;23.346;2023-12-20T12:07:14;99.15;;;35.88;;
77287;SDS011;66345;42.694;23.346;2023-12-20T12:09:39;102.47;;;36.93;;
77287;SDS011;66345;42.694;23.346;2023-12-20T12:12:05;108.32;;;35.58;;
77287;SDS011;66345;42.694;23.346;2023-12-20T12:14:33;112.07;;;38.67;;
77287;SDS011;66345;42.694;23.346;2023-12-20T12:16:58;103.30;;;38.72;;
77287;SDS011;66345;42.694;23.346;2023-12-20T12:19:24;113.83;;;40.27;;
77287;SDS011;66345;42.694;23.346;2023-12-20T12:21:51;134.05;;;48.35;;
77287;SDS011;66345;42.694;23.346;2023-12-20T12:24:44;115.18;;;40.67;;
77287;SDS011;66345;42.694;23.346;2023-12-20T12:27:11;117.50;;;40.95;;
77287;SDS011;66345;42.694;23.346;2023-12-20T12:29:38;117.30;;;39.85;;
77287;SDS011;66345;42.694;23.346;2023-12-20T12:32:07;112.07;;;41.17;;
77287;SDS011;66345;42.694;23.346;2023-12-20T12:34:34;109.20;;;38.53;;
77287;SDS011;66345;42.694;23.346;2023-12-20T12:37:01;118.53;;;40.83;;
77287;SDS011;66345;42.694;23.346;2023-12-20T12:39:27;113.72;;;37.83;;
77287;SDS011;66345;42.694;23.346;2023-12-20T12:41:54;116.30;;;38.30;;
77287;SDS011;66345;42.694;23.346;2023-12-20T12:44:20;101.55;;;34.78;;
77287;SDS011;66345;42.694;23.346;2023-12-20T12:46:48;110.87;;;36.73;;
77287;SDS011;66345;42.694;23.346;2023-12-20T12:49:18;100.82;;;39.70;;
77287;SDS011;66345;42.694;23.346;2023-12-20T12:51:44;113.00;;;38.63;;
77287;SDS011;66345;42.694;23.346;2023-12-20T12:54:10;123.03;;;39.87;;
77287;SDS011;66345;42.694;23.346;2023-12-20T12:56:38;124.70;;;42.60;;
77287;SDS011;66345;42.694;23.346;2023-12-20T12:59:04;128.35;;;42.50;;
77287;SDS011;66345;42.694;23.346;2023-12-20T13:01:30;118.60;;;39.22;;
77287;SDS011;66345;42.694;23.346;2023-12-20T13:03:56;126.10;;;42.72;;
77287;SDS011;66345;42.694;23.346;2023-12-20T13:06:22;101.53;;;35.97;;
77287;SDS011;66345;42.694;23.346;2023-12-20T13:08:48;97.85;;;35.28;;
77287;SDS011;66345;42.694;23.346;2023-12-20T13:11:13;94.40;;;33.35;;
77287;SDS011;66345;42.694;23.346;2023-12-20T13:13:39;88.97;;;29.83;;
77287;SDS011;66345;42.694;23.346;2023-12-20T13:16:04;83.43;;;29.90;;
77287;SDS011;66345;42.694;23.346;2023-12-20T13:18:33;82.93;;;30.13;;
77287;SDS011;66345;42.694;23.346;2023-12-20T13:20:59;83.95;;;31.25;;
77287;SDS011;66345;42.694;23.346;2023-12-20T13:23:24;77.97;;;28.50;;
77287;SDS011;66345;42.694;23.346;2023-12-20T13:25:50;79.77;;;30.60;;
77287;SDS011;66345;42.694;23.346;2023-12-20T13:28:15;75.77;;;28.47;;
77287;SDS011;66345;42.694;23.346;2023-12-20T13:30:41;84.38;;;29.95;;
77287;SDS011;66345;42.694;23.346;2023-12-20T13:33:07;89.80;;;29.20;;
77287;SDS011;66345;42.694;23.346;2023-12-20T13:35:34;88.07;;;30.40;;
77287;SDS011;66345;42.694;23.346;2023-12-20T13:38:00;85.68;;;29.35;;
77287;SDS011;66345;42.694;23.346;2023-12-20T13:40:25;92.50;;;30.33;;
77287;SDS011;66345;42.694;23.346;2023-12-20T13:42:51;105.93;;;32.10;;
77287;SDS011;66345;42.694;23.346;2023-12-20T13:45:17;85.25;;;31.83;;
77287;SDS011;66345;42.694;23.346;2023-12-20T13:47:43;92.80;;;30.40;;
77287;SDS011;66345;42.694;23.346;2023-12-20T13:50:08;105.88;;;31.60;;
77287;SDS011;66345;42.694;23.346;2023-12-20T13:52:34;103.60;;;31.97;;
77287;SDS011;66345;42.694;23.346;2023-12-20T13:55:00;104.50;;;32.13;;
77287;SDS011;66345;42.694;23.346;2023-12-20T13:57:25;104.23;;;33.10;;
77287;SDS011;66345;42.694;23.346;2023-12-20T13:59:51;108.03;;;31.40;;
77287;SDS011;66345;42.694;23.346;2023-12-20T14:02:16;104.97;;;32.37;;
77287;SDS011;66345;42.694;23.346;2023-12-20T14:04:42;98.75;;;31.83;;
77287;SDS011;66345;42.694;23.346;2023-12-20T14:07:08;94.67;;;30.17;;